createdAt,value
2022-12-03T00:02:16.147Z,89.89
2022-12-03T00:04:43.252Z,90.01
2022-12-03T00:07:10.278Z,89.79
2022-12-03T00:09:37.263Z,89.95
2022-12-03T00:12:04.304Z,89.73
2022-12-03T00:14:31.358Z,89.90
2022-12-03T00:16:58.300Z,89.64
2022-12-03T00:19:25.307Z,89.92
2022-12-03T00:21:52.262Z,89.79
2022-12-03T00:24:19.288Z,89.38
2022-12-03T00:26:46.282Z,90.07
2022-12-03T00:29:13.352Z,90.04
2022-12-03T00:31:42.216Z,89.32
2022-12-03T00:34:09.362Z,89.59
2022-12-03T00:36:36.383Z,89.89
2022-12-03T00:39:03.317Z,89.74
2022-12-03T00:41:30.323Z,89.47
2022-12-03T00:43:58.043Z,89.43
2022-12-03T00:46:25.557Z,89.60
2022-12-03T00:48:53.208Z,89.53
2022-12-03T00:51:20.159Z,89.72
2022-12-03T00:53:47.181Z,89.88
2022-12-03T00:56:14.149Z,90.04
2022-12-03T00:58:41.074Z,90.46
2022-12-03T01:01:08.030Z,90.56
2022-12-03T01:03:35.216Z,90.27
2022-12-03T01:06:02.234Z,90.51
2022-12-03T01:08:29.400Z,90.35
2022-12-03T01:10:56.328Z,90.21
2022-12-03T01:13:23.342Z,90.19
2022-12-03T01:15:50.562Z,90.09
2022-12-03T01:18:36.156Z,90.39
2022-12-03T01:21:03.085Z,90.00
2022-12-03T01:23:30.063Z,89.92
2022-12-03T01:25:57.064Z,90.15
2022-12-03T01:28:23.995Z,90.05
2022-12-03T01:31:09.645Z,90.29
2022-12-03T01:33:38.069Z,90.52
2022-12-03T01:36:05.176Z,90.02
2022-12-03T01:38:32.070Z,89.88
2022-12-03T01:40:59.229Z,90.14
2022-12-03T01:43:26.401Z,89.91
2022-12-03T01:45:53.455Z,90.08
2022-12-03T01:48:20.555Z,90.20
2022-12-03T01:50:47.617Z,89.87
2022-12-03T01:53:19.016Z,90.08
2022-12-03T01:55:48.878Z,90.14
2022-12-03T01:58:19.739Z,90.01
2022-12-03T02:00:46.665Z,90.46
2022-12-03T02:03:21.271Z,89.83
2022-12-03T02:05:48.268Z,90.21
2022-12-03T02:08:28.588Z,90.40
2022-12-03T02:10:57.570Z,89.98
2022-12-03T02:13:24.671Z,89.97
2022-12-03T02:15:51.737Z,90.56
2022-12-03T02:18:19.133Z,90.24
2022-12-03T02:21:12.796Z,90.75
2022-12-03T02:23:53.502Z,90.25
2022-12-03T02:26:20.847Z,90.85
2022-12-03T02:28:47.900Z,90.90
2022-12-03T02:31:15.345Z,90.39
2022-12-03T02:33:42.460Z,90.96
2022-12-03T02:36:10.169Z,90.46
2022-12-03T02:38:37.413Z,90.75
2022-12-03T02:41:09.485Z,90.61
2022-12-03T02:43:36.906Z,90.78
2022-12-03T02:46:05.067Z,90.57
2022-12-03T02:48:35.614Z,90.96
2022-12-03T02:51:09.016Z,90.84
2022-12-03T02:53:42.724Z,91.09
2022-12-03T02:56:13.560Z,90.87
2022-12-03T02:58:43.119Z,90.96
2022-12-03T03:01:11.215Z,90.91
2022-12-03T03:03:39.738Z,90.42
2022-12-03T03:06:08.649Z,90.25
2022-12-03T03:08:37.980Z,90.24
2022-12-03T03:11:05.227Z,89.87
2022-12-03T03:13:35.526Z,90.53
2022-12-03T03:16:05.410Z,90.01
2022-12-03T03:18:33.324Z,90.26
2022-12-03T03:21:00.646Z,90.14
2022-12-03T03:23:28.245Z,89.85
2022-12-03T03:26:07.713Z,89.90
2022-12-03T03:28:39.857Z,89.15
2022-12-03T03:31:09.699Z,89.28
2022-12-03T03:33:38.119Z,89.28
2022-12-03T03:36:06.410Z,88.87
2022-12-03T03:38:34.360Z,88.73
2022-12-03T03:41:03.990Z,88.92
2022-12-03T03:43:33.429Z,89.07
2022-12-03T03:46:03.934Z,88.77
2022-12-03T03:48:31.510Z,88.66
2022-12-03T03:50:58.466Z,88.39
2022-12-03T03:53:25.511Z,89.00
2022-12-03T03:55:53.038Z,88.36
2022-12-03T03:58:19.985Z,88.55
2022-12-03T04:00:47.644Z,88.29
2022-12-03T04:03:14.678Z,88.70
2022-12-03T04:05:41.696Z,88.10
2022-12-03T04:08:08.827Z,87.88
2022-12-03T04:10:54.499Z,87.96
2022-12-03T04:13:21.638Z,87.99
2022-12-03T04:15:48.681Z,88.17
2022-12-03T04:18:34.210Z,88.45
2022-12-03T04:21:19.882Z,88.25
2022-12-03T04:23:46.875Z,88.66
2022-12-03T04:26:32.685Z,88.69
2022-12-03T04:28:59.682Z,88.74
2022-12-03T04:31:45.264Z,88.19
2022-12-03T04:34:31.000Z,87.90
2022-12-03T04:36:58.019Z,87.89
2022-12-03T04:39:25.108Z,88.17
2022-12-03T04:41:52.187Z,88.53
2022-12-03T04:44:36.435Z,87.98
2022-12-03T04:47:16.957Z,87.98
2022-12-03T04:49:46.670Z,87.84
2022-12-03T04:52:15.141Z,88.18
2022-12-03T04:54:42.493Z,88.59
2022-12-03T04:57:10.634Z,88.12
2022-12-03T04:59:38.620Z,88.42
2022-12-03T05:02:06.603Z,88.31
2022-12-03T05:04:33.992Z,88.86
2022-12-03T05:07:01.085Z,88.90
2022-12-03T05:09:28.052Z,88.86
2022-12-03T05:11:55.066Z,88.59
2022-12-03T05:14:22.059Z,88.66
2022-12-03T05:16:49.051Z,89.07
2022-12-03T05:19:16.157Z,88.70
2022-12-03T05:21:43.122Z,88.65
2022-12-03T05:24:10.040Z,88.12
2022-12-03T05:26:37.021Z,88.33
2022-12-03T05:29:04.222Z,88.35
2022-12-03T05:31:31.311Z,88.55
2022-12-03T05:33:58.382Z,89.01
2022-12-03T05:36:25.748Z,88.60
2022-12-03T05:38:52.784Z,88.57
2022-12-03T05:41:38.183Z,88.40
2022-12-03T05:44:05.232Z,88.09
2022-12-03T05:46:33.110Z,87.98
2022-12-03T05:49:00.187Z,88.32
2022-12-03T05:51:27.397Z,88.00
2022-12-03T05:53:54.312Z,88.32
2022-12-03T05:56:21.271Z,88.07
2022-12-03T05:58:48.391Z,88.38
2022-12-03T06:01:15.336Z,88.39
2022-12-03T06:03:42.587Z,88.12
2022-12-03T06:06:09.719Z,88.27
2022-12-03T06:08:36.702Z,87.97
2022-12-03T06:11:03.756Z,88.38
2022-12-03T06:13:30.818Z,88.01
2022-12-03T06:15:57.887Z,88.29
2022-12-03T06:18:24.950Z,88.25
2022-12-03T06:20:51.854Z,88.46
2022-12-03T06:23:18.824Z,88.55
2022-12-03T06:25:45.870Z,88.29
2022-12-03T06:28:12.973Z,88.55
2022-12-03T06:30:40.076Z,88.45
2022-12-03T06:33:07.086Z,88.30
2022-12-03T06:35:33.995Z,88.13
2022-12-03T06:38:01.069Z,88.58
2022-12-03T06:40:28.073Z,88.75
2022-12-03T06:42:54.999Z,88.86
2022-12-03T06:45:22.040Z,89.17
2022-12-03T06:47:49.036Z,89.14
2022-12-03T06:50:16.476Z,89.28
2022-12-03T06:52:43.522Z,89.25
2022-12-03T06:55:10.720Z,89.34
2022-12-03T06:57:37.756Z,89.54
2022-12-03T07:00:06.652Z,89.10
2022-12-03T07:02:33.882Z,89.40
2022-12-03T07:05:00.893Z,89.28
2022-12-03T07:07:27.927Z,88.84
2022-12-03T07:09:54.951Z,89.12
2022-12-03T07:12:22.302Z,89.70
2022-12-03T07:14:49.342Z,89.55
2022-12-03T07:17:16.271Z,89.16
2022-12-03T07:19:43.310Z,88.61
2022-12-03T07:22:10.280Z,89.44
2022-12-03T07:24:37.376Z,88.83
2022-12-03T07:27:04.458Z,88.66
2022-12-03T07:29:31.430Z,89.24
2022-12-03T07:31:58.423Z,89.15
2022-12-03T07:34:25.431Z,89.34
2022-12-03T07:36:52.545Z,88.33
2022-12-03T07:39:19.481Z,88.51
2022-12-03T07:41:46.439Z,88.51
2022-12-03T07:44:14.783Z,88.18
2022-12-03T07:46:42.811Z,88.25
2022-12-03T07:49:10.252Z,88.66
2022-12-03T07:51:37.350Z,89.04
2022-12-03T08:16:22.380Z,90.00
2022-12-03T08:18:51.012Z,89.81
2022-12-03T08:21:20.223Z,89.49
2022-12-03T08:23:47.614Z,88.28
2022-12-03T08:26:23.577Z,88.45
2022-12-03T08:28:52.421Z,88.55
2022-12-03T08:31:32.343Z,88.16
2022-12-03T08:34:17.732Z,87.83
2022-12-03T08:36:45.581Z,88.05
2022-12-03T08:39:24.826Z,88.33
2022-12-03T08:42:17.366Z,86.80
2022-12-03T08:44:45.404Z,86.50
2022-12-03T08:47:22.805Z,87.43
2022-12-03T08:50:07.313Z,86.30
2022-12-03T08:52:35.195Z,86.29
2022-12-03T08:55:35.855Z,86.23
2022-12-03T08:58:39.625Z,86.50
2022-12-03T09:01:12.931Z,86.56
2022-12-03T09:03:49.562Z,86.67
2022-12-03T09:11:59.174Z,86.48
2022-12-03T09:14:26.415Z,86.55
2022-12-03T09:16:56.528Z,86.72
2022-12-03T09:19:26.008Z,86.84
2022-12-03T09:21:54.042Z,87.20
2022-12-03T09:24:21.097Z,87.26
2022-12-03T09:26:48.221Z,87.44
2022-12-03T09:29:15.447Z,87.78
2022-12-03T09:31:42.631Z,87.48
2022-12-03T09:34:11.408Z,87.39
2022-12-03T09:36:38.496Z,87.15
2022-12-03T09:39:05.711Z,87.61
2022-12-03T09:41:32.787Z,87.76
2022-12-03T09:44:04.435Z,87.08
2022-12-03T09:46:34.275Z,87.30
2022-12-03T09:49:02.322Z,87.37
2022-12-03T09:51:35.904Z,87.27
2022-12-03T09:54:05.360Z,87.92
2022-12-03T09:56:38.202Z,88.30
2022-12-03T09:59:15.439Z,88.34
2022-12-03T10:01:42.774Z,88.32
2022-12-03T10:04:10.369Z,88.16
2022-12-03T10:06:44.110Z,88.38
2022-12-03T10:09:17.437Z,88.25
2022-12-03T10:11:44.912Z,88.22
2022-12-03T10:14:14.464Z,88.47
2022-12-03T10:16:42.241Z,88.96
2022-12-03T10:19:17.539Z,89.28
2022-12-03T10:21:44.668Z,88.79
2022-12-03T10:24:21.424Z,89.09
2022-12-03T10:26:51.084Z,89.45
2022-12-03T10:29:21.105Z,89.54
2022-12-03T10:31:58.086Z,89.92
2022-12-03T10:34:34.089Z,89.71
2022-12-03T10:37:12.122Z,89.62
2022-12-03T10:39:59.986Z,89.77
2022-12-03T10:42:29.750Z,90.29
2022-12-03T10:45:18.118Z,90.27
2022-12-03T10:48:13.334Z,90.29
2022-12-03T10:50:54.031Z,89.82
2022-12-03T10:53:26.089Z,90.17
2022-12-03T10:55:58.999Z,90.45
2022-12-03T10:58:32.004Z,90.14
2022-12-03T11:01:01.618Z,90.41
2022-12-03T11:03:31.036Z,90.62
2022-12-03T11:06:01.327Z,90.90
2022-12-03T11:08:33.211Z,90.98
2022-12-03T11:11:01.873Z,91.21
2022-12-03T11:13:35.193Z,91.29
2022-12-03T11:16:04.985Z,91.55
2022-12-03T11:18:38.721Z,91.57
2022-12-03T11:21:14.116Z,91.40
2022-12-03T11:23:44.788Z,91.45
2022-12-03T11:26:19.622Z,91.36
2022-12-03T11:28:47.215Z,91.76
2022-12-03T11:31:35.790Z,91.69
2022-12-03T11:34:18.141Z,92.03
2022-12-03T11:37:10.058Z,92.43
2022-12-03T11:39:53.080Z,92.51
2022-12-03T11:42:26.037Z,92.75
2022-12-03T11:45:11.162Z,93.07
2022-12-03T11:48:12.312Z,93.32
2022-12-03T11:50:43.578Z,93.41
2022-12-03T11:53:31.578Z,93.75
2022-12-03T11:56:11.010Z,93.59
2022-12-03T11:58:42.449Z,94.09
2022-12-03T12:01:10.114Z,93.71
2022-12-03T12:03:46.526Z,94.29
2022-12-03T12:06:16.227Z,93.79
2022-12-03T12:08:52.370Z,94.10
2022-12-03T12:11:30.594Z,94.70
2022-12-03T12:14:01.511Z,94.88
2022-12-03T12:17:03.364Z,95.12
2022-12-03T12:19:42.275Z,95.31
2022-12-03T12:22:20.335Z,95.29
2022-12-03T12:24:51.797Z,95.58
2022-12-03T12:27:32.710Z,95.90
2022-12-03T12:30:02.891Z,96.90
2022-12-03T12:32:34.792Z,97.83
2022-12-03T12:35:19.856Z,97.48
2022-12-03T12:37:59.671Z,97.48
2022-12-03T12:40:32.374Z,97.81
2022-12-03T12:43:12.061Z,98.00
2022-12-03T12:45:43.614Z,98.82
2022-12-03T12:48:13.170Z,99.08
2022-12-03T12:50:42.524Z,98.46
2022-12-03T12:53:26.252Z,98.33
2022-12-03T12:55:57.844Z,99.10
2022-12-03T12:58:26.250Z,98.21
2022-12-03T13:00:57.360Z,98.83
2022-12-03T13:03:28.957Z,98.17
2022-12-03T13:05:57.836Z,98.36
2022-12-03T13:08:39.724Z,98.39
2022-12-03T13:11:21.092Z,98.55
2022-12-03T13:13:48.261Z,98.33
2022-12-03T13:16:33.956Z,98.29
2022-12-03T13:19:02.178Z,98.36
2022-12-03T13:21:39.721Z,97.75
2022-12-03T13:24:34.644Z,97.82
2022-12-03T13:27:13.800Z,97.89
2022-12-03T13:29:40.942Z,98.55
2022-12-03T13:32:21.020Z,98.62
2022-12-03T13:34:50.569Z,98.39
2022-12-03T13:37:25.452Z,97.89
2022-12-03T13:39:56.128Z,98.32
2022-12-03T13:42:39.525Z,97.96
2022-12-03T13:45:15.759Z,98.26
2022-12-03T13:47:48.806Z,98.70
2022-12-03T13:50:34.334Z,98.10
2022-12-03T13:53:24.576Z,98.55
2022-12-03T13:56:00.896Z,99.19
2022-12-03T13:58:27.914Z,98.13
2022-12-03T14:00:55.011Z,98.47
2022-12-03T14:03:23.459Z,98.83
2022-12-03T14:05:50.516Z,99.10
2022-12-03T14:08:17.691Z,98.63
2022-12-03T14:10:44.870Z,98.84
2022-12-03T14:13:12.001Z,98.60
2022-12-03T14:15:38.985Z,99.27
2022-12-03T14:18:06.206Z,98.84
2022-12-03T14:20:35.148Z,98.34
2022-12-03T14:23:02.291Z,99.82
2022-12-03T14:25:29.378Z,99.20
2022-12-03T14:27:56.573Z,98.19
2022-12-03T14:30:23.546Z,98.70
2022-12-03T14:32:50.540Z,99.51
2022-12-03T14:35:17.465Z,98.07
2022-12-03T14:37:45.183Z,99.56
2022-12-03T14:40:16.561Z,98.44
2022-12-03T14:42:46.677Z,98.72
2022-12-03T14:45:13.791Z,98.78
2022-12-03T14:47:40.940Z,98.46
2022-12-03T14:50:08.822Z,99.31
2022-12-03T14:52:36.712Z,97.87
2022-12-03T14:55:04.086Z,97.73
2022-12-03T14:57:31.086Z,98.37
2022-12-03T14:59:58.147Z,97.88
2022-12-03T15:02:25.210Z,97.74
2022-12-03T15:04:52.354Z,98.52
2022-12-03T15:07:19.374Z,97.95
2022-12-03T15:09:46.551Z,97.41
2022-12-03T15:12:13.707Z,97.39
2022-12-03T15:14:41.471Z,97.99
2022-12-03T15:17:08.574Z,97.21
2022-12-03T15:19:35.627Z,97.57
2022-12-03T15:22:02.633Z,96.80
2022-12-03T15:24:29.658Z,97.64
2022-12-03T15:26:56.923Z,97.79
2022-12-03T15:29:24.052Z,98.10
2022-12-03T15:31:51.274Z,97.63
2022-12-03T15:34:22.570Z,97.08
2022-12-03T15:36:50.461Z,96.84
2022-12-03T15:39:17.496Z,96.29
2022-12-03T15:41:44.548Z,96.11
2022-12-03T15:44:11.614Z,95.80
2022-12-03T15:46:38.607Z,95.02
2022-12-03T15:49:05.680Z,95.08
2022-12-03T15:51:33.321Z,95.83
2022-12-03T15:54:00.417Z,94.65
2022-12-03T15:56:27.410Z,94.25
2022-12-03T15:58:54.411Z,93.20
2022-12-03T16:01:21.787Z,93.57
2022-12-03T16:03:48.833Z,91.76
2022-12-03T16:06:18.270Z,90.87
2022-12-03T16:08:45.364Z,91.52
2022-12-03T16:11:12.418Z,90.16
2022-12-03T16:13:39.486Z,90.09
2022-12-03T16:16:06.879Z,90.26
2022-12-03T16:18:33.971Z,89.73
2022-12-03T16:21:01.125Z,89.12
2022-12-03T16:23:28.250Z,89.32
2022-12-03T16:25:55.384Z,89.68
2022-12-03T16:28:22.500Z,89.01
2022-12-03T16:30:49.650Z,89.65
2022-12-03T16:33:16.872Z,90.95
2022-12-03T16:35:44.756Z,91.64
2022-12-03T16:38:11.787Z,90.68
2022-12-03T16:40:38.850Z,90.68
2022-12-03T16:43:05.883Z,91.85
2022-12-03T16:46:01.902Z,91.39
2022-12-03T16:48:30.316Z,91.67
2022-12-03T16:50:57.558Z,91.51
2022-12-03T16:53:24.758Z,91.90
2022-12-03T16:55:51.960Z,91.12
2022-12-03T16:58:21.486Z,91.29
2022-12-03T17:00:49.618Z,91.16
2022-12-03T17:03:18.160Z,91.39
2022-12-03T17:05:46.230Z,91.56
2022-12-03T17:08:14.393Z,91.76
2022-12-03T17:10:41.924Z,91.75
2022-12-03T17:13:10.315Z,90.53
2022-12-03T17:15:38.396Z,90.50
2022-12-03T17:18:06.263Z,91.46
2022-12-03T17:20:33.879Z,91.45
2022-12-03T17:23:01.489Z,91.12
2022-12-03T17:25:28.795Z,91.35
2022-12-03T17:27:56.077Z,91.75
2022-12-03T17:30:23.083Z,91.71
2022-12-03T17:32:50.581Z,91.63
2022-12-03T17:35:18.024Z,91.97
2022-12-03T17:37:45.506Z,91.87
2022-12-03T17:40:14.134Z,91.66
2022-12-03T17:42:41.289Z,91.91
2022-12-03T17:45:09.133Z,91.70
2022-12-03T17:47:36.165Z,91.58
2022-12-03T17:50:03.416Z,92.54
2022-12-03T17:52:30.528Z,92.57
2022-12-03T17:55:18.050Z,92.05
2022-12-03T17:57:44.883Z,92.70
2022-12-03T18:00:12.664Z,92.81
2022-12-03T18:02:40.705Z,92.01
2022-12-03T18:05:08.147Z,92.14
2022-12-03T18:07:35.364Z,92.23
2022-12-03T18:10:02.741Z,92.92
2022-12-03T18:12:30.908Z,92.45
2022-12-03T18:14:58.064Z,92.49
2022-12-03T18:17:25.328Z,92.55
2022-12-03T18:19:52.837Z,92.94
2022-12-03T18:22:20.746Z,92.44
2022-12-03T18:24:51.576Z,92.77
2022-12-03T18:27:21.323Z,92.82
2022-12-03T18:29:49.065Z,92.95
2022-12-03T18:32:28.294Z,92.86
2022-12-03T18:34:57.927Z,92.30
2022-12-03T18:37:29.346Z,92.02
2022-12-03T18:39:58.456Z,91.87
2022-12-03T18:42:26.067Z,92.10
2022-12-03T18:44:55.681Z,91.92
2022-12-03T18:47:25.655Z,91.50
2022-12-03T18:49:53.822Z,91.58
2022-12-03T18:52:23.196Z,91.94
2022-12-03T18:54:50.391Z,92.28
2022-12-03T18:57:18.032Z,91.90
2022-12-03T18:59:45.273Z,91.73
2022-12-03T19:02:38.658Z,91.99
2022-12-03T19:05:04.471Z,91.71
2022-12-03T19:07:32.062Z,91.77
2022-12-03T19:09:59.251Z,92.05
2022-12-03T19:12:26.638Z,91.73
2022-12-03T19:14:53.844Z,91.55
2022-12-03T19:17:21.869Z,91.94
2022-12-03T19:19:51.119Z,91.45
2022-12-03T19:22:22.345Z,91.65
2022-12-03T19:24:50.542Z,92.00
2022-12-03T19:27:17.665Z,91.69
2022-12-03T19:29:48.363Z,91.41
2022-12-03T19:32:15.950Z,91.46
2022-12-03T19:34:43.138Z,91.10
2022-12-03T19:37:10.372Z,91.22
2022-12-03T19:39:37.586Z,91.42
2022-12-03T19:42:04.809Z,91.14
2022-12-03T19:44:32.016Z,91.41
2022-12-03T19:46:59.006Z,91.22
2022-12-03T19:49:27.372Z,91.55
2022-12-03T19:51:54.636Z,91.42
2022-12-03T19:54:21.724Z,90.82
2022-12-03T19:56:49.167Z,90.63
2022-12-03T19:59:19.156Z,91.25
2022-12-03T20:01:46.450Z,91.49
2022-12-03T20:04:14.058Z,91.07
2022-12-03T20:06:41.581Z,90.89
2022-12-03T20:09:12.205Z,91.42
2022-12-03T20:11:41.109Z,91.15
2022-12-03T20:14:11.400Z,91.11
2022-12-03T20:16:38.518Z,90.84
2022-12-03T20:19:07.968Z,90.46
2022-12-03T20:21:36.718Z,90.90
2022-12-03T20:24:04.861Z,90.82
2022-12-03T20:26:32.514Z,90.51
2022-12-03T20:29:00.178Z,90.88
2022-12-03T20:31:30.468Z,90.97
2022-12-03T20:34:00.799Z,90.15
2022-12-03T20:36:29.566Z,90.15
2022-12-03T20:38:58.977Z,90.83
2022-12-03T20:41:26.394Z,90.78
2022-12-03T20:43:53.909Z,91.37
2022-12-03T20:46:23.786Z,90.70
2022-12-03T20:48:50.769Z,90.15
2022-12-03T20:51:19.962Z,90.34
2022-12-03T20:53:48.022Z,90.90
2022-12-03T20:56:24.125Z,90.61
2022-12-03T20:58:51.271Z,90.98
2022-12-03T21:01:24.229Z,90.62
2022-12-03T21:03:53.846Z,90.88
2022-12-03T21:06:22.017Z,90.87
2022-12-03T21:08:49.157Z,90.67
2022-12-03T21:11:19.366Z,91.01
2022-12-03T21:13:47.364Z,91.35
2022-12-03T21:16:17.622Z,90.75
2022-12-03T21:18:44.958Z,91.39
2022-12-03T21:21:13.420Z,91.79
2022-12-03T21:23:40.813Z,91.12
2022-12-03T21:26:10.901Z,91.14
2022-12-03T21:28:38.609Z,91.40
2022-12-03T21:31:08.602Z,91.57
2022-12-03T21:33:35.820Z,91.65
2022-12-03T21:36:03.411Z,91.65
2022-12-03T21:38:32.147Z,91.74
2022-12-03T21:40:59.468Z,91.89
2022-12-03T21:43:27.177Z,92.06
2022-12-03T21:45:54.363Z,91.44
2022-12-03T21:48:22.081Z,91.45
2022-12-03T21:51:00.408Z,91.33
2022-12-03T21:53:28.602Z,92.02
2022-12-03T21:55:55.733Z,91.40
2022-12-03T21:58:22.772Z,91.41
2022-12-03T22:00:49.873Z,90.75
2022-12-03T22:03:17.096Z,91.23
2022-12-03T22:05:44.285Z,91.37
2022-12-03T22:08:11.310Z,91.19
2022-12-03T22:10:38.396Z,90.77
2022-12-03T22:13:05.415Z,90.52
2022-12-03T22:15:32.595Z,90.50
2022-12-03T22:17:59.660Z,90.39
2022-12-03T22:20:27.522Z,90.48
2022-12-03T22:22:54.557Z,90.83
2022-12-03T22:25:21.624Z,90.23
2022-12-03T22:27:48.677Z,90.23
2022-12-03T22:30:15.765Z,90.31
2022-12-03T22:32:42.763Z,90.49
2022-12-03T22:35:09.820Z,90.35
2022-12-03T22:37:36.923Z,90.40
2022-12-03T22:40:04.932Z,90.34
2022-12-03T22:42:32.013Z,90.77
2022-12-03T22:44:58.978Z,90.80
2022-12-03T22:47:25.955Z,90.95
2022-12-03T22:49:53.016Z,90.58
2022-12-03T22:52:20.164Z,90.48
2022-12-03T22:54:47.161Z,90.83
2022-12-03T22:57:14.194Z,90.39
2022-12-03T22:59:41.122Z,90.49
2022-12-03T23:02:08.216Z,91.14
2022-12-03T23:04:35.202Z,90.94
2022-12-03T23:07:02.245Z,90.98
2022-12-03T23:09:29.277Z,91.14
2022-12-03T23:11:56.212Z,90.52
2022-12-03T23:14:23.146Z,90.63
2022-12-03T23:16:50.071Z,90.55
2022-12-03T23:19:19.994Z,90.11
2022-12-03T23:21:47.025Z,90.40
2022-12-03T23:24:14.014Z,90.61
2022-12-03T23:26:41.353Z,90.88
2022-12-03T23:29:08.689Z,90.36
2022-12-03T23:31:36.248Z,90.45
2022-12-03T23:34:04.285Z,90.40
2022-12-03T23:36:32.882Z,90.03
2022-12-03T23:39:00.014Z,90.42
2022-12-03T23:41:27.180Z,90.86
2022-12-03T23:43:54.373Z,90.86
2022-12-03T23:46:24.785Z,90.42
2022-12-03T23:48:52.540Z,90.23
2022-12-03T23:51:22.362Z,90.05
2022-12-03T23:53:49.549Z,91.01
2022-12-03T23:56:21.994Z,90.47
2022-12-03T23:58:49.028Z,91.07
